Time;durP1;ratioP1;P1;durP2;ratioP2;P2;SDS_P1;SDS_P2;PMS_P1;PMS_P2;Temp;Humidity;BMP_temperature;BMP_pressure;BME280_temperature;BME280_humidity;BME280_pressure;Samples;Min_cycle;Max_cycle;Signal;HPM_P1;HPM_P2
2022/09/23 00:00:29;;;;;;;4.50;4.10;;;14.00;50.30;;;;;;5057985;28;20587;-88
2022/09/23 00:02:58;;;;;;;5.03;4.63;;;14.00;50.20;;;;;;5046210;28;20477;-86
2022/09/23 00:05:25;;;;;;;7.40;4.80;;;13.90;49.90;;;;;;5026347;28;20430;-87
2022/09/23 00:07:53;;;;;;;6.03;4.77;;;13.90;50.70;;;;;;5057485;28;20438;-87
2022/09/23 00:10:21;;;;;;;5.10;4.70;;;13.90;50.70;;;;;;5054403;28;20481;-85
2022/09/23 00:12:49;;;;;;;5.40;4.63;;;13.80;50.70;;;;;;5021806;28;20476;-87
2022/09/23 00:15:17;;;;;;;5.60;4.23;;;13.80;50.60;;;;;;5038051;28;20453;-87
2022/09/23 00:17:44;;;;;;;6.13;4.90;;;13.80;50.70;;;;;;5024646;28;20457;-86
2022/09/23 00:20:11;;;;;;;5.27;4.77;;;13.80;50.60;;;;;;5025364;28;20440;-88
2022/09/23 00:22:38;;;;;;;8.50;5.17;;;13.70;50.60;;;;;;5038147;28;20464;-86
2022/09/23 00:25:08;;;;;;;5.80;5.03;;;13.70;50.70;;;;;;5036046;28;20446;-86
2022/09/23 00:27:35;;;;;;;7.07;4.50;;;13.70;50.50;;;;;;5029676;28;20444;-86
2022/09/23 00:30:04;;;;;;;5.40;4.70;;;13.60;50.70;;;;;;5040026;28;21015;-89
2022/09/23 00:32:32;;;;;;;6.17;5.37;;;13.60;50.80;;;;;;5036642;28;20586;-86
2022/09/23 00:34:59;;;;;;;5.53;5.03;;;13.60;50.60;;;;;;5050202;28;21050;-86
2022/09/23 00:37:28;;;;;;;6.30;5.00;;;13.50;50.80;;;;;;5022323;28;20477;-86
2022/09/23 00:39:55;;;;;;;7.07;4.67;;;13.50;51.00;;;;;;5028848;28;21019;-89
2022/09/23 00:42:23;;;;;;;7.23;4.13;;;13.50;51.00;;;;;;5038688;28;20572;-86
2022/09/23 00:44:53;;;;;;;6.00;4.97;;;13.50;50.70;;;;;;5023756;28;20488;-85
2022/09/23 00:47:31;;;;;;;7.03;5.83;;;13.50;50.80;;;;;;5038316;28;20909;-86
2022/09/23 00:50:07;;;;;;;9.00;4.67;;;13.50;51.40;;;;;;5020771;28;20508;-88
2022/09/23 00:52:34;;;;;;;7.90;4.77;;;13.50;50.60;;;;;;5052158;28;20468;-86
2022/09/23 00:55:07;;;;;;;6.37;5.13;;;13.40;50.30;;;;;;5033822;28;20507;-88
2022/09/23 00:57:36;;;;;;;4.87;4.47;;;13.40;50.20;;;;;;5032866;28;21103;-89
2022/09/23 01:00:06;;;;;;;5.80;4.40;;;13.40;50.40;;;;;;5051143;28;20447;-88
2022/09/23 01:02:36;;;;;;;6.53;4.93;;;13.30;51.00;;;;;;5021106;28;20464;-87
2022/09/23 01:05:05;;;;;;;9.40;5.50;;;13.30;51.20;;;;;;5025108;28;20924;-88
2022/09/23 01:07:33;;;;;;;5.23;4.70;;;13.40;51.20;;;;;;5051896;28;20466;-87
2022/09/23 01:10:01;;;;;;;5.93;5.43;;;13.40;50.70;;;;;;5020369;28;20452;-86
2022/09/23 01:12:44;;;;;;;5.80;5.30;;;13.40;50.50;;;;;;5053581;28;20468;-86
2022/09/23 01:15:18;;;;;;;5.60;5.00;;;13.40;50.80;;;;;;5052640;28;20448;-86
2022/09/23 01:17:56;;;;;;;5.70;5.20;;;13.30;50.80;;;;;;5054442;28;20452;-87
2022/09/23 01:20:55;;;;;;;5.97;5.10;;;13.30;50.70;;;;;;5037618;28;20442;-87
2022/09/23 01:23:51;;;;;;;5.87;5.37;;;13.20;50.40;;;;;;5056466;28;20462;-86
2022/09/23 01:26:37;;;;;;;5.60;4.93;;;13.10;50.30;;;;;;5035022;28;20538;-86
2022/09/23 01:29:26;;;;;;;6.20;5.00;;;13.10;51.60;;;;;;5026853;28;20493;-89
2022/09/23 01:32:02;;;;;;;11.60;5.60;;;13.10;51.70;;;;;;5043641;28;20477;-87
2022/09/23 01:34:36;;;;;;;9.23;5.30;;;13.10;51.10;;;;;;5021936;28;20548;-86
2022/09/23 01:37:10;;;;;;;7.63;6.00;;;13.10;50.80;;;;;;5055152;28;20441;-86
2022/09/23 01:39:40;;;;;;;5.53;4.80;;;13.00;50.60;;;;;;5052242;28;21103;-86
2022/09/23 01:42:16;;;;;;;6.87;5.50;;;13.00;50.80;;;;;;5054487;28;20548;-87
2022/09/23 01:44:50;;;;;;;5.97;5.40;;;12.90;51.10;;;;;;5014040;28;20518;-86
2022/09/23 01:47:22;;;;;;;7.80;5.37;;;12.90;51.20;;;;;;5028847;28;20461;-89
2022/09/23 01:49:52;;;;;;;6.73;5.57;;;12.90;51.40;;;;;;5044156;28;20448;-87
2022/09/23 01:52:27;;;;;;;13.00;6.73;;;12.80;51.50;;;;;;5054591;28;20562;-87
2022/09/23 01:55:01;;;;;;;10.87;7.77;;;12.80;52.20;;;;;;5038474;28;20463;-87
2022/09/23 01:57:33;;;;;;;10.07;6.60;;;12.70;53.10;;;;;;5052198;28;20452;-86
2022/09/23 02:00:05;;;;;;;6.80;5.90;;;12.80;53.10;;;;;;5010455;28;20937;-87
2022/09/23 02:02:48;;;;;;;8.80;6.43;;;12.80;53.30;;;;;;5026925;28;20471;-86
2022/09/23 02:05:22;;;;;;;7.20;6.20;;;12.80;53.40;;;;;;5056009;28;20549;-90
2022/09/23 02:07:53;;;;;;;8.90;5.80;;;12.80;53.20;;;;;;5056356;28;20485;-85
2022/09/23 02:10:24;;;;;;;12.80;6.30;;;12.80;53.40;;;;;;5052795;28;20488;-87
2022/09/23 02:12:56;;;;;;;7.57;5.87;;;12.80;53.40;;;;;;5026688;28;20476;-89
2022/09/23 02:15:27;;;;;;;7.70;6.30;;;12.80;53.40;;;;;;5033559;28;20468;-86
2022/09/23 02:18:00;;;;;;;8.50;6.50;;;12.80;53.30;;;;;;5025264;28;20461;-88
2022/09/23 02:20:30;;;;;;;10.53;7.60;;;12.60;54.20;;;;;;5037548;28;20451;-87
2022/09/23 02:23:03;;;;;;;8.20;6.73;;;12.60;54.10;;;;;;5037298;28;20834;-86
2022/09/23 02:25:39;;;;;;;9.43;6.97;;;12.70;53.80;;;;;;5037223;28;21156;-86
2022/09/23 02:28:12;;;;;;;6.67;5.77;;;12.80;53.30;;;;;;5043923;28;20836;-88
2022/09/23 02:30:46;;;;;;;7.43;5.90;;;12.80;53.10;;;;;;5053672;28;20457;-86
2022/09/23 02:33:20;;;;;;;22.27;6.10;;;12.70;52.70;;;;;;5036140;28;20477;-88
2022/09/23 02:35:51;;;;;;;12.50;6.73;;;12.70;52.40;;;;;;5035449;28;20837;-87
2022/09/23 02:38:24;;;;;;;6.27;5.43;;;12.80;52.20;;;;;;5027570;28;20456;-86
2022/09/23 02:40:57;;;;;;;7.87;6.80;;;12.60;51.80;;;;;;5053847;28;20444;-87
2022/09/23 02:43:34;;;;;;;9.73;7.57;;;12.30;52.20;;;;;;5034346;28;20977;-87
2022/09/23 02:46:02;;;;;;;10.67;6.57;;;12.30;52.50;;;;;;5052567;28;21143;-88
2022/09/23 02:48:34;;;;;;;6.70;5.70;;;12.30;52.50;;;;;;5051104;28;20453;-88
2022/09/23 02:51:03;;;;;;;11.73;6.60;;;12.30;52.90;;;;;;5050534;28;20504;-87
2022/09/23 02:53:33;;;;;;;11.40;7.00;;;12.40;53.00;;;;;;5036881;28;20842;-87
2022/09/23 02:56:00;;;;;;;11.90;7.20;;;12.40;52.60;;;;;;5053142;28;20463;-86
2022/09/23 02:58:28;;;;;;;8.67;6.40;;;12.50;52.70;;;;;;5055927;28;20452;-87
2022/09/23 03:01:03;;;;;;;8.13;6.90;;;12.40;53.30;;;;;;5037675;28;21024;-88
2022/09/23 03:03:41;;;;;;;13.60;7.60;;;12.50;53.80;;;;;;5037102;28;21086;-85
2022/09/23 03:06:20;;;;;;;29.93;7.60;;;12.50;53.60;;;;;;5019806;28;20441;-89
2022/09/23 03:08:53;;;;;;;7.07;6.00;;;12.50;53.60;;;;;;5035573;28;20464;-86
2022/09/23 03:11:20;;;;;;;8.40;6.13;;;12.50;53.70;;;;;;5057146;28;20472;-85
2022/09/23 03:13:57;;;;;;;6.87;5.87;;;12.40;53.10;;;;;;5056011;28;20969;-86
2022/09/23 03:16:32;;;;;;;31.00;13.23;;;12.40;53.50;;;;;;5047272;28;20453;-87
2022/09/23 03:19:12;;;;;;;13.07;9.07;;;12.40;53.60;;;;;;5046000;28;20437;-86
2022/09/23 03:21:43;;;;;;;38.53;9.47;;;12.40;53.80;;;;;;5022516;28;20493;-87
2022/09/23 03:24:13;;;;;;;22.83;7.60;;;12.40;53.90;;;;;;5039410;28;20450;-86
2022/09/23 03:26:43;;;;;;;10.30;8.13;;;12.40;54.10;;;;;;5023131;28;20885;-86
2022/09/23 03:29:12;;;;;;;11.53;7.97;;;12.40;54.10;;;;;;5021714;28;20452;-87
2022/09/23 03:31:41;;;;;;;21.03;9.77;;;12.50;54.10;;;;;;5056747;28;20980;-89
2022/09/23 03:34:15;;;;;;;36.47;11.33;;;12.50;54.50;;;;;;5057708;28;20991;-87
2022/09/23 03:36:50;;;;;;;13.37;8.50;;;12.50;54.60;;;;;;5056493;28;20484;-88
2022/09/23 03:39:29;;;;;;;182.27;17.43;;;12.40;55.00;;;;;;5039842;28;20436;-87
2022/09/23 03:41:59;;;;;;;15.70;11.07;;;12.30;54.90;;;;;;5038363;28;20483;-87
2022/09/23 03:44:28;;;;;;;22.67;14.47;;;11.80;56.30;;;;;;5056494;28;20817;-88
2022/09/23 03:46:57;;;;;;;28.63;13.13;;;11.60;56.20;;;;;;5058733;28;22159;-86
2022/09/23 03:49:28;;;;;;;19.47;11.20;;;11.60;56.40;;;;;;5024625;28;21442;-88
2022/09/23 03:51:56;;;;;;;40.20;11.47;;;11.80;55.90;;;;;;5058205;28;20475;-86
2022/09/23 03:54:22;;;;;;;13.70;9.20;;;11.90;55.50;;;;;;5054234;28;20922;-90
2022/09/23 03:56:49;;;;;;;18.87;9.93;;;11.80;56.00;;;;;;5037452;28;20459;-86
2022/09/23 03:59:17;;;;;;;20.20;12.57;;;11.90;56.20;;;;;;5007911;28;21027;-88
2022/09/23 04:01:44;;;;;;;12.60;10.47;;;11.90;55.70;;;;;;5021780;28;20449;-87
2022/09/23 04:04:11;;;;;;;20.60;10.97;;;12.00;55.30;;;;;;5013947;28;20458;-86
2022/09/23 04:06:40;;;;;;;16.63;11.93;;;11.90;55.50;;;;;;5023997;28;20452;-86
2022/09/23 04:09:07;;;;;;;15.50;11.20;;;12.00;55.60;;;;;;5023106;28;20448;-86
2022/09/23 04:11:34;;;;;;;14.60;9.30;;;12.10;55.40;;;;;;5022772;28;20456;-91
2022/09/23 04:14:01;;;;;;;12.60;9.17;;;12.20;55.40;;;;;;5038871;28;20459;-86
2022/09/23 04:16:28;;;;;;;20.80;10.13;;;12.20;55.10;;;;;;5034590;28;20445;-89
2022/09/23 04:18:55;;;;;;;21.53;11.27;;;12.30;54.70;;;;;;5026136;28;20468;-87
2022/09/23 04:21:22;;;;;;;18.47;11.83;;;12.40;54.50;;;;;;5033545;28;20460;-87
2022/09/23 04:23:50;;;;;;;22.23;9.50;;;12.20;54.50;;;;;;5055193;28;20560;-86
2022/09/23 04:26:17;;;;;;;30.93;10.83;;;12.10;54.70;;;;;;5037180;28;20476;-86
2022/09/23 04:28:44;;;;;;;21.70;9.57;;;11.90;54.90;;;;;;5051525;28;21006;-86
2022/09/23 04:31:11;;;;;;;14.13;9.73;;;11.90;55.10;;;;;;5034149;28;20437;-86
2022/09/23 04:33:38;;;;;;;25.53;10.03;;;11.90;55.10;;;;;;5034419;28;20607;-87
2022/09/23 04:36:06;;;;;;;46.40;13.77;;;11.90;54.90;;;;;;5034292;28;20472;-87
2022/09/23 04:38:33;;;;;;;66.47;15.20;;;11.70;55.20;;;;;;5024062;28;20458;-91
2022/09/23 04:41:01;;;;;;;17.90;11.07;;;11.60;55.60;;;;;;5022183;28;20816;-85
2022/09/23 04:43:28;;;;;;;16.77;10.20;;;11.70;55.80;;;;;;5019130;28;20470;-86
2022/09/23 04:45:59;;;;;;;15.13;9.00;;;11.80;55.40;;;;;;5024726;28;20457;-89
2022/09/23 04:48:26;;;;;;;236.77;17.70;;;11.80;55.30;;;;;;5028115;28;20841;-87
2022/09/23 04:50:53;;;;;;;14.03;9.27;;;11.60;55.60;;;;;;5035997;28;20452;-90
2022/09/23 04:53:21;;;;;;;61.67;13.70;;;11.70;55.70;;;;;;5034419;28;20506;-86
2022/09/23 04:55:51;;;;;;;131.80;19.97;;;11.80;55.30;;;;;;5021193;28;20444;-88
2022/09/23 04:58:21;;;;;;;23.67;14.53;;;11.50;56.00;;;;;;5054084;28;20453;-87
2022/09/23 05:00:48;;;;;;;92.33;19.70;;;11.60;56.20;;;;;;5036820;28;20466;-87
2022/09/23 05:03:15;;;;;;;20.00;15.07;;;11.30;56.00;;;;;;5051808;28;20522;-86
2022/09/23 05:05:42;;;;;;;27.50;14.70;;;11.40;56.60;;;;;;5026402;28;20469;-87
2022/09/23 05:08:09;;;;;;;59.10;12.80;;;11.60;56.60;;;;;;5053290;28;20454;-86
2022/09/23 05:10:36;;;;;;;20.90;10.13;;;11.70;56.10;;;;;;5008656;28;20479;-86
2022/09/23 05:13:03;;;;;;;78.67;18.20;;;11.70;55.50;;;;;;5028672;28;20481;-86
2022/09/23 05:15:31;;;;;;;49.90;8.63;;;11.60;55.00;;;;;;5056420;28;20444;-87
2022/09/23 05:17:58;;;;;;;24.13;10.03;;;11.60;55.30;;;;;;5049811;28;20456;-90
2022/09/23 05:20:26;;;;;;;19.10;9.73;;;11.70;55.30;;;;;;5030742;28;20453;-88
2022/09/23 05:22:54;;;;;;;24.10;8.80;;;11.60;55.30;;;;;;5032418;28;20480;-87
2022/09/23 05:25:22;;;;;;;25.57;8.07;;;11.30;56.10;;;;;;5048040;28;20511;-89
2022/09/23 05:27:49;;;;;;;60.60;14.93;;;11.00;56.90;;;;;;5048281;28;20544;-87
2022/09/23 05:30:16;;;;;;;38.10;12.33;;;11.00;57.20;;;;;;5050555;28;20456;-88
2022/09/23 05:32:45;;;;;;;30.10;9.63;;;10.50;58.20;;;;;;5019650;28;20485;-87
2022/09/23 05:35:12;;;;;;;16.07;9.00;;;10.80;58.40;;;;;;5041316;28;20449;-89
2022/09/23 05:37:39;;;;;;;12.87;9.10;;;11.10;58.00;;;;;;5027878;28;20460;-88
2022/09/23 05:40:06;;;;;;;20.30;8.63;;;11.30;57.20;;;;;;5047742;28;20452;-87
2022/09/23 05:42:34;;;;;;;23.80;10.00;;;11.30;57.00;;;;;;5031547;28;21000;-87
2022/09/23 05:45:01;;;;;;;25.17;8.77;;;11.20;56.70;;;;;;5008554;28;20523;-87
2022/09/23 05:47:28;;;;;;;37.90;9.03;;;10.90;57.40;;;;;;5047879;28;20457;-88
2022/09/23 05:49:56;;;;;;;65.30;10.73;;;10.80;57.50;;;;;;5032410;28;22425;-89
2022/09/23 05:52:24;;;;;;;25.87;8.37;;;11.00;57.60;;;;;;5033919;28;20491;-87
2022/09/23 05:54:51;;;;;;;165.73;15.83;;;11.20;57.20;;;;;;5032057;28;20493;-89
2022/09/23 05:57:19;;;;;;;11.23;8.47;;;11.40;56.40;;;;;;5033475;28;20476;-88
2022/09/23 05:59:47;;;;;;;13.77;8.40;;;11.50;56.50;;;;;;5033824;28;20452;-87
2022/09/23 06:02:14;;;;;;;18.53;7.70;;;11.70;56.10;;;;;;5029905;28;20544;-89
2022/09/23 06:04:41;;;;;;;21.77;9.30;;;11.90;55.70;;;;;;5005537;28;20540;-88
2022/09/23 06:07:10;;;;;;;16.03;8.53;;;11.90;55.50;;;;;;5014873;28;20491;-88
2022/09/23 06:09:37;;;;;;;59.93;12.17;;;11.50;56.10;;;;;;5026309;28;20461;-87
2022/09/23 06:12:05;;;;;;;11.83;9.03;;;11.70;56.40;;;;;;5026548;28;20495;-89
2022/09/23 06:14:32;;;;;;;21.93;10.60;;;11.50;56.40;;;;;;5052500;28;20859;-87
2022/09/23 06:16:59;;;;;;;12.30;9.20;;;11.70;56.30;;;;;;5050779;28;20462;-87
2022/09/23 06:19:25;;;;;;;20.50;9.80;;;11.70;56.40;;;;;;5029739;28;20461;-87
2022/09/23 06:21:52;;;;;;;32.57;11.53;;;11.80;56.60;;;;;;5018237;28;20468;-89
2022/09/23 06:24:21;;;;;;;23.47;9.67;;;11.80;56.30;;;;;;5023624;28;20462;-87
2022/09/23 06:26:48;;;;;;;33.13;11.23;;;11.40;57.00;;;;;;5022764;28;20938;-87
2022/09/23 06:29:17;;;;;;;26.23;11.23;;;11.40;57.30;;;;;;5032511;28;20449;-88
2022/09/23 06:31:43;;;;;;;53.23;11.63;;;11.20;57.90;;;;;;5006694;28;20539;-89
2022/09/23 06:34:12;;;;;;;30.20;10.87;;;11.20;58.00;;;;;;5023698;28;20467;-87
2022/09/23 06:36:39;;;;;;;23.57;11.17;;;11.40;57.70;;;;;;5037727;28;20457;-91
2022/09/23 06:39:06;;;;;;;63.83;12.97;;;11.70;57.60;;;;;;5022009;28;20460;-88
2022/09/23 06:41:35;;;;;;;20.87;11.60;;;11.90;57.10;;;;;;5040672;28;20452;-89
2022/09/23 06:44:02;;;;;;;25.47;9.87;;;11.40;57.60;;;;;;5039238;28;20448;-88
2022/09/23 06:46:30;;;;;;;16.40;9.90;;;11.20;57.50;;;;;;5035644;28;20460;-88
2022/09/23 06:48:58;;;;;;;17.30;8.93;;;11.30;57.50;;;;;;5049798;28;20452;-88
2022/09/23 06:51:25;;;;;;;18.30;9.70;;;11.40;57.30;;;;;;5034821;28;20867;-90
2022/09/23 06:53:51;;;;;;;22.60;12.30;;;11.30;57.70;;;;;;5036637;28;20465;-91
2022/09/23 06:56:20;;;;;;;15.43;11.83;;;11.40;57.80;;;;;;5038842;28;20451;-91
2022/09/23 06:58:51;;;;;;;20.67;11.40;;;11.50;58.00;;;;;;5040372;28;20460;-88
2022/09/23 07:01:18;;;;;;;25.53;12.60;;;11.60;58.00;;;;;;5041417;28;20444;-89
2022/09/23 07:03:47;;;;;;;43.80;14.33;;;11.70;57.90;;;;;;5024100;28;20939;-88
2022/09/23 07:06:14;;;;;;;41.70;10.57;;;11.90;57.80;;;;;;5013630;28;20484;-90
2022/09/23 07:08:43;;;;;;;14.97;9.40;;;11.90;57.10;;;;;;5032768;28;20853;-88
2022/09/23 07:11:12;;;;;;;70.60;14.07;;;11.90;57.30;;;;;;5043573;28;20449;-90
2022/09/23 07:13:40;;;;;;;41.37;18.30;;;12.00;57.20;;;;;;5035525;28;20472;-92
2022/09/23 07:16:10;;;;;;;38.83;23.07;;;11.90;57.10;;;;;;5019868;28;20452;-88
2022/09/23 07:18:37;;;;;;;24.40;12.13;;;11.70;57.70;;;;;;5020935;28;20517;-91
2022/09/23 07:21:07;;;;;;;25.47;10.77;;;11.80;58.10;;;;;;5006119;28;20456;-88
2022/09/23 07:23:35;;;;;;;19.73;10.00;;;12.00;57.80;;;;;;5024239;28;20510;-90
2022/09/23 07:26:02;;;;;;;14.37;9.73;;;12.10;57.30;;;;;;5035527;28;20937;-88
2022/09/23 07:28:31;;;;;;;19.00;11.60;;;12.30;57.00;;;;;;5025199;28;20960;-89
2022/09/23 07:31:01;;;;;;;23.23;17.10;;;12.40;56.50;;;;;;5033812;28;20581;-87
2022/09/23 07:33:31;;;;;;;18.97;9.53;;;12.50;56.30;;;;;;5020890;28;20488;-88
2022/09/23 07:35:58;;;;;;;15.10;10.17;;;12.40;56.20;;;;;;5051094;28;20461;-87
2022/09/23 07:38:28;;;;;;;13.37;10.23;;;12.20;56.90;;;;;;5038904;28;20464;-88
2022/09/23 07:41:01;;;;;;;13.13;9.17;;;12.00;57.10;;;;;;5034090;28;20448;-88
2022/09/23 07:43:31;;;;;;;11.33;8.67;;;11.90;57.40;;;;;;5020142;28;20484;-89
2022/09/23 07:45:59;;;;;;;18.00;9.60;;;12.00;57.40;;;;;;5005440;28;20460;-89
2022/09/23 07:48:26;;;;;;;10.90;8.07;;;12.20;56.70;;;;;;5035108;28;20474;-89
2022/09/23 07:50:54;;;;;;;16.37;9.17;;;12.50;56.70;;;;;;5024964;28;20745;-91
2022/09/23 07:53:21;;;;;;;20.30;9.07;;;12.80;56.10;;;;;;5052642;28;20511;-88
2022/09/23 07:55:53;;;;;;;12.50;9.83;;;12.80;55.70;;;;;;5050151;28;20460;-91
2022/09/23 07:58:20;;;;;;;22.30;10.70;;;12.70;56.30;;;;;;5037952;28;20997;-89
2022/09/23 08:00:47;;;;;;;10.03;9.00;;;12.90;56.30;;;;;;5007270;28;20450;-89
2022/09/23 08:03:14;;;;;;;12.60;9.73;;;13.00;56.10;;;;;;5027150;28;20507;-87
2022/09/23 08:05:41;;;;;;;12.33;10.33;;;13.10;55.60;;;;;;5010396;28;20462;-88
2022/09/23 08:08:10;;;;;;;11.40;9.33;;;13.10;55.70;;;;;;5030997;28;20827;-88
2022/09/23 08:10:37;;;;;;;10.57;8.77;;;13.10;55.90;;;;;;5035591;28;20473;-88
2022/09/23 08:13:04;;;;;;;15.97;8.80;;;13.30;55.60;;;;;;4999336;28;20481;-89
2022/09/23 08:15:31;;;;;;;11.90;8.20;;;13.50;55.40;;;;;;5014451;28;21099;-88
2022/09/23 08:18:07;;;;;;;11.60;7.70;;;13.70;55.20;;;;;;5016531;28;20977;-91
2022/09/23 08:23:18;;;;;;;16.40;10.00;;;13.60;55.20;;;;;;5013077;28;20468;-88
2022/09/23 08:25:46;;;;;;;14.23;8.57;;;13.60;55.60;;;;;;5032881;28;20547;-89
2022/09/23 08:28:14;;;;;;;9.60;8.00;;;13.70;55.70;;;;;;5032066;28;20453;-89
2022/09/23 08:30:42;;;;;;;8.80;7.90;;;13.90;55.40;;;;;;5034216;28;20441;-89
2022/09/23 08:33:09;;;;;;;13.77;7.43;;;13.90;55.10;;;;;;5037704;28;20473;-89
2022/09/23 08:35:36;;;;;;;11.93;8.50;;;13.80;55.50;;;;;;5025183;28;20448;-89
2022/09/23 08:38:03;;;;;;;15.20;8.13;;;13.80;55.60;;;;;;5037760;28;20823;-89
2022/09/23 08:40:34;;;;;;;11.43;8.13;;;14.00;55.50;;;;;;5035378;28;20448;-87
2022/09/23 08:43:01;;;;;;;9.10;8.20;;;13.90;55.70;;;;;;5039640;28;20639;-89
2022/09/23 08:45:28;;;;;;;10.70;7.80;;;14.10;56.00;;;;;;5030503;28;20449;-90
2022/09/23 08:48:04;;;;;;;8.57;7.57;;;14.30;55.60;;;;;;5019626;28;20465;-90
2022/09/23 08:50:41;;;;;;;11.10;8.07;;;14.40;54.90;;;;;;5025105;28;20457;-91
2022/09/23 08:53:14;;;;;;;12.33;8.80;;;14.40;55.00;;;;;;5050824;28;20867;-90
2022/09/23 08:55:47;;;;;;;8.67;7.77;;;14.50;55.00;;;;;;5042342;28;20464;-89
2022/09/23 08:58:36;;;;;;;9.93;8.43;;;14.60;55.10;;;;;;5027484;28;20464;-90
2022/09/23 09:01:11;;;;;;;11.33;8.30;;;14.70;55.00;;;;;;5026959;28;20445;-90
2022/09/23 09:03:44;;;;;;;9.13;7.83;;;14.60;55.20;;;;;;5014793;28;20567;-91
2022/09/23 09:06:17;;;;;;;9.20;7.67;;;14.50;55.60;;;;;;5018881;28;20456;-89
2022/09/23 09:08:52;;;;;;;9.87;8.67;;;14.70;55.90;;;;;;5031640;28;20503;-88
2022/09/23 09:11:23;;;;;;;12.77;8.37;;;14.90;55.80;;;;;;5058711;28;20949;-89
2022/09/23 09:14:00;;;;;;;10.53;9.07;;;15.10;55.60;;;;;;5033660;28;20477;-89
2022/09/23 09:16:45;;;;;;;14.23;10.60;;;15.00;55.50;;;;;;5026154;28;20448;-91
2022/09/23 09:19:17;;;;;;;13.20;8.17;;;15.00;55.50;;;;;;5033335;28;20500;-88
2022/09/23 09:21:47;;;;;;;11.30;9.70;;;15.10;55.70;;;;;;5031810;28;20440;-89
2022/09/23 09:24:19;;;;;;;8.33;7.53;;;15.30;55.80;;;;;;5034361;28;20525;-88
2022/09/23 09:26:47;;;;;;;9.53;8.53;;;15.50;55.80;;;;;;5034598;28;20461;-90
2022/09/23 09:29:17;;;;;;;10.47;8.30;;;15.70;55.10;;;;;;5032731;28;20476;-89
2022/09/23 09:31:46;;;;;;;19.60;9.07;;;15.90;54.90;;;;;;5039433;28;20437;-89
2022/09/23 09:34:26;;;;;;;13.60;9.73;;;15.90;54.70;;;;;;5003200;28;20471;-89
2022/09/23 09:37:02;;;;;;;13.20;7.90;;;16.10;54.40;;;;;;5035249;28;20457;-89
2022/09/23 09:39:29;;;;;;;11.63;7.27;;;16.20;54.50;;;;;;5021844;28;20452;-88
2022/09/23 09:41:58;;;;;;;11.83;9.20;;;16.20;54.50;;;;;;5031039;28;20478;-88
2022/09/23 09:44:31;;;;;;;8.40;7.50;;;16.30;54.60;;;;;;5019048;28;20473;-88
2022/09/23 09:47:16;;;;;;;11.53;8.67;;;16.50;54.10;;;;;;5020249;28;20457;-88
2022/09/23 09:49:47;;;;;;;8.43;6.87;;;16.60;53.60;;;;;;5017158;28;20493;-88
2022/09/23 09:52:21;;;;;;;10.50;7.50;;;16.80;53.40;;;;;;5020535;28;20465;-88
2022/09/23 09:54:49;;;;;;;13.67;8.30;;;17.00;53.10;;;;;;5047421;28;20466;-88
2022/09/23 09:57:29;;;;;;;9.40;6.90;;;17.10;52.90;;;;;;5031432;28;20496;-89
2022/09/23 09:59:56;;;;;;;9.20;7.03;;;17.20;53.10;;;;;;5017103;28;20437;-88
2022/09/23 10:02:29;;;;;;;10.67;7.30;;;17.40;52.90;;;;;;5016562;28;20992;-88
2022/09/23 10:05:05;;;;;;;20.97;8.47;;;17.40;52.50;;;;;;5051675;28;20438;-89
2022/09/23 10:07:34;;;;;;;13.60;8.43;;;17.40;52.50;;;;;;5001823;28;20448;-89
2022/09/23 10:10:18;;;;;;;7.60;6.80;;;17.50;52.50;;;;;;5038775;28;20472;-89
2022/09/23 10:12:48;;;;;;;8.73;7.50;;;17.70;52.20;;;;;;5035391;28;20465;-89
2022/09/23 10:15:30;;;;;;;10.27;7.20;;;17.70;51.80;;;;;;5019574;28;20441;-89
2022/09/23 10:18:00;;;;;;;7.07;6.30;;;17.80;52.00;;;;;;5033769;28;20453;-89
2022/09/23 10:20:31;;;;;;;9.53;7.30;;;18.00;51.90;;;;;;5021857;28;20457;-88
2022/09/23 10:23:06;;;;;;;7.10;6.40;;;18.30;51.10;;;;;;5029916;28;20500;-89
2022/09/23 10:25:36;;;;;;;9.30;7.27;;;18.00;50.70;;;;;;5050313;28;20475;-90
2022/09/23 10:28:32;;;;;;;12.17;8.30;;;18.20;51.40;;;;;;5055904;28;20877;-89
2022/09/23 10:31:06;;;;;;;7.47;6.70;;;18.30;50.40;;;;;;5035131;28;20886;-89
2022/09/23 10:33:35;;;;;;;9.40;6.90;;;18.40;49.70;;;;;;5037410;28;21148;-89
2022/09/23 10:36:02;;;;;;;7.20;6.50;;;18.70;50.00;;;;;;5052415;28;20441;-88
2022/09/23 10:38:29;;;;;;;9.23;6.10;;;19.00;49.60;;;;;;5039518;28;20509;-89
2022/09/23 10:46:50;;;;;;;9.90;7.80;;;19.50;48.80;;;;;;5016022;28;20444;-88
2022/09/23 10:50:08;;;;;;;6.37;5.77;;;19.80;48.20;;;;;;5045250;28;20460;-88
2022/09/23 10:52:50;;;;;;;7.77;7.00;;;20.00;47.30;;;;;;5011512;28;20470;-87
2022/09/23 10:55:31;;;;;;;10.10;7.33;;;20.00;47.40;;;;;;5024815;28;20460;-89
2022/09/23 10:58:32;;;;;;;7.27;6.57;;;20.10;46.70;;;;;;5027646;28;20928;-89
2022/09/23 11:01:12;;;;;;;7.00;5.70;;;20.20;46.20;;;;;;5010685;28;20461;-88
2022/09/23 11:03:58;;;;;;;9.40;6.40;;;20.40;45.60;;;;;;5035124;28;20472;-89
2022/09/23 11:06:33;;;;;;;7.10;5.70;;;20.50;46.30;;;;;;5036293;28;20493;-88
2022/09/23 11:09:14;;;;;;;5.87;5.27;;;20.60;45.40;;;;;;5037977;28;20436;-86
2022/09/23 11:11:54;;;;;;;7.33;6.50;;;20.90;45.80;;;;;;5038649;28;20447;-87
2022/09/23 11:14:37;;;;;;;5.70;4.63;;;21.10;45.00;;;;;;5053083;28;21328;-89
2022/09/23 11:17:26;;;;;;;4.63;4.13;;;21.30;45.20;;;;;;5037019;28;20449;-87
2022/09/23 11:20:20;;;;;;;4.73;4.30;;;21.50;43.60;;;;;;5035959;28;20957;-90
2022/09/23 11:22:59;;;;;;;6.17;4.53;;;21.40;42.50;;;;;;5036517;28;20480;-89
2022/09/23 11:25:41;;;;;;;4.80;4.40;;;21.70;44.90;;;;;;5035105;28;20551;-88
2022/09/23 11:28:28;;;;;;;4.80;4.30;;;22.00;42.20;;;;;;5034313;28;20955;-88
2022/09/23 11:31:05;;;;;;;5.90;4.70;;;22.10;42.60;;;;;;5054639;28;20456;-88
2022/09/23 11:33:45;;;;;;;5.73;4.73;;;22.10;40.90;;;;;;5035499;28;20477;-88
2022/09/23 11:36:22;;;;;;;5.90;4.33;;;22.00;41.40;;;;;;5056394;28;20449;-89
2022/09/23 11:38:54;;;;;;;8.00;3.83;;;22.00;40.40;;;;;;5035663;28;21048;-90
2022/09/23 11:41:25;;;;;;;4.80;4.30;;;22.10;40.10;;;;;;5035684;28;20457;-89
2022/09/23 11:43:58;;;;;;;3.30;3.10;;;22.40;40.50;;;;;;5039651;28;20969;-90
2022/09/23 11:46:34;;;;;;;3.10;2.60;;;22.60;36.80;;;;;;5055046;28;20456;-88
2022/09/23 11:49:11;;;;;;;3.23;2.93;;;22.60;37.60;;;;;;5028301;28;21098;-88
2022/09/23 11:51:43;;;;;;;5.83;4.43;;;22.30;38.30;;;;;;5034241;28;20563;-88
2022/09/23 11:54:18;;;;;;;3.70;3.10;;;22.30;39.10;;;;;;5022415;28;20571;-88
2022/09/23 11:56:47;;;;;;;4.57;2.77;;;22.60;40.30;;;;;;5036538;28;20567;-89
2022/09/23 11:59:23;;;;;;;3.10;2.80;;;22.90;39.80;;;;;;5038321;28;20484;-91
2022/09/23 12:01:54;;;;;;;2.90;2.37;;;23.00;35.10;;;;;;5046043;28;20461;-88
2022/09/23 12:04:30;;;;;;;2.90;2.67;;;23.20;36.50;;;;;;5023310;28;20446;-89
2022/09/23 12:07:00;;;;;;;2.67;2.47;;;23.10;33.70;;;;;;5024886;28;20448;-88
2022/09/23 12:09:32;;;;;;;3.87;3.00;;;23.10;35.40;;;;;;5023763;28;20461;-89
2022/09/23 12:12:08;;;;;;;5.47;3.47;;;23.50;35.00;;;;;;5029891;28;20434;-90
2022/09/23 12:14:42;;;;;;;3.80;3.40;;;23.80;35.20;;;;;;5010667;28;20551;-88
2022/09/23 12:17:27;;;;;;;3.20;2.27;;;23.90;33.50;;;;;;5028367;28;20441;-88
2022/09/23 12:20:26;;;;;;;5.33;2.73;;;23.80;35.10;;;;;;5039422;28;20535;-90
2022/09/23 12:23:03;;;;;;;4.27;2.80;;;24.00;35.30;;;;;;5008381;28;20806;-88
2022/09/23 12:25:45;;;;;;;2.10;2.00;;;24.30;34.50;;;;;;5023450;28;20798;-89
2022/09/23 12:28:18;;;;;;;2.53;2.33;;;24.30;34.50;;;;;;5036662;28;20454;-88
2022/09/23 12:30:47;;;;;;;2.53;2.33;;;24.10;34.70;;;;;;5024547;28;20499;-86
2022/09/23 12:33:23;;;;;;;4.33;2.73;;;24.40;35.60;;;;;;5053637;28;20560;-88
2022/09/23 12:35:53;;;;;;;2.40;2.20;;;24.80;33.80;;;;;;5021837;28;21107;-88
2022/09/23 12:38:25;;;;;;;2.80;2.60;;;24.80;33.10;;;;;;5043586;28;20478;-88
2022/09/23 12:40:53;;;;;;;3.40;2.10;;;24.30;32.80;;;;;;5038016;28;20432;-88
2022/09/23 12:43:29;;;;;;;2.90;2.60;;;23.80;34.40;;;;;;5053432;28;20555;-88
2022/09/23 12:46:24;;;;;;;2.87;2.40;;;23.70;34.00;;;;;;5027439;28;20473;-88
2022/09/23 12:49:06;;;;;;;2.67;2.23;;;23.50;35.10;;;;;;5054127;28;20441;-89
2022/09/23 12:51:35;;;;;;;2.40;2.17;;;23.60;35.10;;;;;;5053501;28;20533;-88
2022/09/23 12:54:22;;;;;;;3.43;2.17;;;23.60;34.60;;;;;;5044088;28;20472;-88
2022/09/23 12:57:05;;;;;;;2.60;2.07;;;23.90;35.00;;;;;;5035186;28;20492;-90
2022/09/23 12:59:53;;;;;;;2.47;2.03;;;24.30;34.80;;;;;;5037495;28;20480;-89
2022/09/23 13:02:31;;;;;;;2.50;2.30;;;24.30;34.40;;;;;;5045115;28;20468;-89
2022/09/23 13:08:01;;;;;;;2.70;2.40;;;24.40;33.60;;;;;;5002371;28;21062;-90
2022/09/23 13:10:31;;;;;;;3.33;2.53;;;24.40;33.00;;;;;;5004439;28;20457;-89
2022/09/23 13:13:01;;;;;;;2.53;2.33;;;23.90;33.30;;;;;;5036239;28;20473;-88